Time;durP1;ratioP1;P1;durP2;ratioP2;P2;SDS_P1;SDS_P2;PMS_P1;PMS_P2;Temp;Humidity;BMP_temperature;BMP_pressure;BME280_temperature;BME280_humidity;BME280_pressure;Samples;Min_cycle;Max_cycle;Signal;HPM_P1;HPM_P2
2022/01/22 00:01:50;;;;;;;;;;;;;;;2.34;100.00;100724.09;5032690;28;20370;-66
2022/01/22 00:04:16;;;;;;;;;;;;;;;2.37;100.00;100716.22;5017129;28;19917;-65
2022/01/22 00:06:41;;;;;;;;;;;;;;;2.40;100.00;100723.91;5036628;28;19992;-64
2022/01/22 00:09:07;;;;;;;;;;;;;;;2.42;100.00;100715.22;5032497;28;20378;-65
2022/01/22 00:11:35;;;;;;;;;;;;;;;2.46;100.00;100736.69;5036832;28;19917;-67
2022/01/22 00:16:44;;;;;;;;;;;;;;;2.52;100.00;100715.84;5039134;28;20062;-66
2022/01/22 00:19:10;;;;;;;;;;;;;;;2.55;100.00;100718.31;5035091;28;20003;-64
2022/01/22 00:21:35;;;;;;;;;;;;;;;2.57;100.00;100713.97;5016149;28;19909;-64
2022/01/22 00:24:02;;;;;;;;;;;;;;;2.58;100.00;100722.56;5036313;28;19924;-64
2022/01/22 00:26:27;;;;;;;;;;;;;;;2.60;100.00;100715.63;5041818;28;19967;-66
2022/01/22 00:28:52;;;;;;;;;;;;;;;2.62;100.00;100729.38;5033521;28;20002;-65
2022/01/22 00:31:18;;;;;;;;;;;;;;;2.63;100.00;100720.69;5032986;28;19913;-65
2022/01/22 00:33:43;;;;;;;;;;;;;;;2.64;100.00;100715.50;5038962;28;19916;-65
2022/01/22 00:36:08;;;;;;;;;;;;;;;2.66;100.00;100702.50;5032721;28;19913;-65
2022/01/22 00:38:33;;;;;;;;;;;;;;;2.70;100.00;100709.28;5019100;28;19917;-67
2022/01/22 00:40:59;;;;;;;;;;;;;;;2.71;100.00;100726.53;5038492;28;19913;-65
2022/01/22 00:43:27;;;;;;;;;;;;;;;2.72;100.00;100709.25;5017761;28;19913;-65
2022/01/22 00:45:52;;;;;;;;;;;;;;;2.71;100.00;100708.41;5014902;28;19909;-65
2022/01/22 00:48:18;;;;;;;;;;;;;;;2.74;100.00;100715.22;5033643;28;20012;-64
2022/01/22 00:50:44;;;;;;;;;;;;;;;2.75;100.00;100720.38;5031916;28;20041;-66
2022/01/22 00:53:21;;;;;;;;;;;;;;;2.78;100.00;100712.53;5032518;28;20750;-64
2022/01/22 00:55:46;;;;;;;;;;;;;;;2.80;100.00;100708.16;5034423;28;20289;-64
2022/01/22 00:58:12;;;;;;;;;;;;;;;2.81;100.00;100709.84;5032834;28;19913;-67
2022/01/22 01:00:37;;;;;;;;;;;;;;;2.83;100.00;100708.06;5038875;28;19923;-64
2022/01/22 01:03:02;;;;;;;;;;;;;;;2.85;100.00;100718.38;5034114;28;20012;-67
2022/01/22 01:05:28;;;;;;;;;;;;;;;2.86;100.00;100720.09;5033036;28;19983;-66
2022/01/22 01:07:53;;;;;;;;;;;;;;;2.85;100.00;100708.00;5031949;28;19963;-66
2022/01/22 01:10:20;;;;;;;;;;;;;;;2.86;100.00;100720.94;5032339;28;19970;-65
2022/01/22 01:12:47;;;;;;;;;;;;;;;2.88;100.00;100733.81;5034176;28;19996;-65
2022/01/22 01:15:34;;;;;;;;;;;;;;;;;;;;;
2022/01/22 01:34:10;;;;;;;;;;;;;;;2.96;100.00;100718.91;5033441;28;19979;-64
2022/01/22 01:36:36;;;;;;;;;;;;;;;2.96;100.00;100721.50;5037896;28;20277;-64
2022/01/22 01:39:04;;;;;;;;;;;;;;;2.97;100.00;100712.84;5037630;28;20008;-65
2022/01/22 01:41:53;;;;;;;;;;;;;;;2.96;100.00;100718.91;5043151;28;20388;-66
2022/01/22 01:44:18;;;;;;;;;;;;;;;2.99;100.00;100725.75;5033882;28;19919;-66
2022/01/22 01:46:44;;;;;;;;;;;;;;;3.00;100.00;100728.28;5034298;28;19913;-67
2022/01/22 01:49:10;;;;;;;;;;;;;;;3.01;100.00;100736.94;5032251;28;20305;-67
2022/01/22 01:51:35;;;;;;;;;;;;;;;3.01;100.00;100729.16;5034568;28;19916;-64
2022/01/22 01:54:27;;;;;;;;;;;;;;;3.01;100.00;100717.06;5031579;28;19971;-64
2022/01/22 01:59:30;;;;;;;;;;;;;;;3.03;100.00;100717.84;5031680;28;20071;-66
2022/01/22 02:01:55;;;;;;;;;;;;;;;3.06;100.00;100716.91;5033308;28;20012;-65
2022/01/22 02:04:20;;;;;;;;;;;;;;;3.04;100.00;100719.56;5032519;28;20297;-66
2022/01/22 02:06:45;;;;;;;;;;;;;;;3.07;100.00;100708.25;5032859;28;20308;-66
2022/01/22 02:09:11;;;;;;;;;;;;;;;3.11;100.00;100715.88;5029395;28;19913;-65
2022/01/22 02:11:38;;;;;;;;;;;;;;;3.14;100.00;100720.13;5033462;28;20469;-65
2022/01/22 02:24:47;;;;;;;;;;;;;;;3.29;100.00;100701.53;5029866;28;20421;-64
2022/01/22 02:27:12;;;;;;;;;;;;;;;3.35;100.00;100703.09;5031343;28;19909;-66
2022/01/22 02:29:38;;;;;;;;;;;;;;;3.39;100.00;100697.75;5030416;28;19920;-66
2022/01/22 02:32:35;;;;;;;;;;;;;;;3.49;100.00;100706.13;5032586;28;19913;-65
2022/01/22 02:34:52;;;;;;;;;;;;;;;3.64;100.00;100704.78;5029138;28;19913;-65
2022/01/22 02:37:19;;;;;;;;;;;;;;;3.68;100.00;100718.50;5034505;28;19927;-65
2022/01/22 02:39:59;;;;;;;;;;;;;;;3.76;100.00;100716.50;5030848;28;19983;-66
2022/01/22 02:42:28;;;;;;;;;;;;;;;3.79;100.00;100719.88;5026784;28;19912;-66
2022/01/22 02:44:53;;;;;;;;;;;;;;;3.86;100.00;100723.97;5028336;28;19917;-66
2022/01/22 02:47:19;;;;;;;;;;;;;;;3.88;100.00;100724.75;5030370;28;20320;-65
2022/01/22 02:49:44;;;;;;;;;;;;;;;3.97;100.00;100717.56;5030142;28;19992;-67
2022/01/22 02:52:10;;;;;;;;;;;;;;;4.05;100.00;100738.94;5033266;28;20285;-65
2022/01/22 02:54:36;;;;;;;;;;;;;;;4.10;100.00;100722.28;5030514;28;20521;-65
2022/01/22 02:57:02;;;;;;;;;;;;;;;4.16;100.00;100723.00;5030783;28;19923;-64
2022/01/22 02:59:27;;;;;;;;;;;;;;;4.23;100.00;100732.28;5030303;28;19925;-64
2022/01/22 03:01:53;;;;;;;;;;;;;;;4.28;100.00;100727.78;5031037;28;19920;-64
2022/01/22 03:04:18;;;;;;;;;;;;;;;4.32;100.00;100743.19;5012916;28;19920;-66
2022/01/22 03:06:44;;;;;;;;;;;;;;;4.34;100.00;100744.00;5030799;28;19913;-66
2022/01/22 03:09:12;;;;;;;;;;;;;;;4.39;100.00;100772.41;5030405;28;19920;-65
2022/01/22 03:22:22;;;;;;;;;;;;;;;4.49;100.00;100778.13;5029980;28;20318;-66
2022/01/22 03:27:33;;;;;;;;;;;;;;;4.52;100.00;100771.06;5026837;28;19913;-68
2022/01/22 03:29:59;;;;;;;;;;;;;;;4.52;100.00;100775.41;5031073;28;19913;-65
2022/01/22 03:32:28;;;;;;;;;;;;;;;4.52;100.00;100789.25;5031395;28;20290;-67
2022/01/22 03:34:59;;;;;;;;;;;;;;;4.54;100.00;100786.59;5029208;28;19959;-66
2022/01/22 03:37:25;;;;;;;;;;;;;;;4.54;100.00;100795.25;5026736;28;19913;-65
2022/01/22 03:39:50;;;;;;;;;;;;;;;4.56;100.00;100795.19;5029760;28;19913;-66
2022/01/22 03:42:15;;;;;;;;;;;;;;;4.53;100.00;100822.13;5030705;28;19909;-66
2022/01/22 03:44:41;;;;;;;;;;;;;;;4.50;100.00;100823.97;5028562;28;19913;-66
2022/01/22 03:47:06;;;;;;;;;;;;;;;4.49;100.00;100825.72;5033333;28;19913;-64
2022/01/22 03:49:31;;;;;;;;;;;;;;;4.45;100.00;100836.22;5029356;28;19917;-66
2022/01/22 03:51:56;;;;;;;;;;;;;;;4.41;100.00;100822.50;5029118;28;19917;-65
2022/01/22 03:54:22;;;;;;;;;;;;;;;4.37;100.00;100831.28;5023374;28;19912;-63
2022/01/22 03:56:48;;;;;;;;;;;;;;;4.32;100.00;100826.25;5028957;28;19913;-65
2022/01/22 03:59:14;;;;;;;;;;;;;;;4.31;100.00;100831.50;5029118;28;19956;-66
2022/01/22 04:04:15;;;;;;;;;;;;;;;4.27;100.00;100833.34;5028788;28;19912;-67
2022/01/22 04:07:17;;;;;;;;;;;;;;;4.28;100.00;100842.00;5033460;28;20423;-67
2022/01/22 04:09:34;;;;;;;;;;;;;;;4.31;100.00;100840.16;5029033;28;20559;-68
2022/01/22 04:12:00;;;;;;;;;;;;;;;4.34;100.00;100841.81;5029139;28;19913;-66
2022/01/22 04:14:30;;;;;;;;;;;;;;;4.33;100.00;100846.13;5028974;28;19919;-66
2022/01/22 04:24:54;;;;;;;;;;;;;;;4.31;100.00;100860.91;5030630;28;19967;-65
2022/01/22 04:27:27;;;;;;;;;;;;;;;4.33;100.00;100868.66;5031406;28;19917;-67
2022/01/22 04:29:54;;;;;;;;;;;;;;;4.32;100.00;100883.38;5029171;28;19975;-65
2022/01/22 04:32:19;;;;;;;;;;;;;;;4.32;100.00;100885.97;5029009;28;19999;-64
2022/01/22 04:34:44;;;;;;;;;;;;;;;4.30;100.00;100879.13;5028551;28;20344;-68
2022/01/22 04:37:10;;;;;;;;;;;;;;;4.25;100.00;100891.41;5028639;28;19963;-66
2022/01/22 04:39:36;;;;;;;;;;;;;;;4.20;100.00;100890.72;5029310;28;19913;-67
2022/01/22 04:42:02;;;;;;;;;;;;;;;4.12;100.00;100893.53;5029199;28;20281;-65
2022/01/22 04:44:32;;;;;;;;;;;;;;;4.07;100.00;100896.25;5027393;28;19917;-65
2022/01/22 04:52:42;;;;;;;;;;;;;;;3.94;100.00;100904.47;5040576;28;19989;-89
2022/01/22 04:55:08;;;;;;;;;;;;;;;3.86;100.00;100908.13;5021215;28;19944;-88
2022/01/22 04:57:37;;;;;;;;;;;;;;;3.81;100.00;100914.34;5040111;28;19913;-87
2022/01/22 05:00:12;;;;;;;;;;;;;;;3.75;100.00;100927.50;5018071;28;19917;-87
2022/01/22 05:02:37;;;;;;;;;;;;;;;3.69;100.00;100930.25;5017920;28;20355;-88
2022/01/22 05:05:05;;;;;;;;;;;;;;;3.66;100.00;100925.16;5035859;28;20024;-89
2022/01/22 05:07:30;;;;;;;;;;;;;;;3.66;100.00;100930.34;5037513;28;19913;-89
2022/01/22 05:09:56;;;;;;;;;;;;;;;3.63;100.00;100939.94;5008691;28;19959;-88
2022/01/22 05:12:21;;;;;;;;;;;;;;;3.63;100.00;100937.34;5037293;28;20345;-90
2022/01/22 05:14:47;;;;;;;;;;;;;;;3.63;100.00;100944.22;5043346;28;20026;-90
2022/01/22 05:17:17;;;;;;;;;;;;;;;3.61;100.00;100939.09;5051484;28;20322;-90
2022/01/22 05:19:50;;;;;;;;;;;;;;;3.59;100.00;100947.81;5021528;28;20020;-89
2022/01/22 05:25:28;;;;;;;;;;;;;;;3.57;100.00;100953.06;4982741;28;19961;-89
2022/01/22 05:38:21;;;;;;;;;;;;;;;3.48;100.00;100961.06;5040038;28;19920;-87
2022/01/22 05:40:46;;;;;;;;;;;;;;;3.48;100.00;100971.44;5038831;28;19921;-90
2022/01/22 05:43:12;;;;;;;;;;;;;;;3.48;100.00;100973.19;5036966;28;20298;-88
2022/01/22 05:45:44;;;;;;;;;;;;;;;3.48;100.00;100978.34;5018459;28;19916;-88
2022/01/22 05:48:11;;;;;;;;;;;;;;;3.47;100.00;100977.50;5024559;28;20003;-87
2022/01/22 05:50:49;;;;;;;;;;;;;;;3.45;100.00;100981.91;5025344;28;19981;-89
2022/01/22 05:53:36;;;;;;;;;;;;;;;3.45;100.00;100981.91;5023575;28;19920;-88
2022/01/22 06:01:33;;;;;;;;;;;;;;;3.44;100.00;100993.16;5036912;28;19936;-90
2022/01/22 06:04:05;;;;;;;;;;;;;;;3.43;100.00;100996.63;5015381;28;20328;-90
2022/01/22 06:06:35;;;;;;;;;;;;;;;3.45;100.00;100999.19;5020072;28;19932;-90
2022/01/22 06:09:03;;;;;;;;;;;;;;;3.45;100.00;100991.41;5018177;28;19963;-90
2022/01/22 06:11:29;;;;;;;;;;;;;;;3.45;100.00;101009.53;5018751;28;20258;-91
2022/01/22 06:14:03;;;;;;;;;;;;;;;3.43;100.00;100996.63;5017822;28;19913;-88
2022/01/22 06:16:30;;;;;;;;;;;;;;;3.44;100.00;101007.84;5017864;28;20040;-89
2022/01/22 06:18:56;;;;;;;;;;;;;;;3.44;100.00;101005.25;5026977;28;19913;-90
2022/01/22 06:21:21;;;;;;;;;;;;;;;3.45;100.00;101014.72;5035901;28;19924;-89
2022/01/22 06:23:47;;;;;;;;;;;;;;;3.46;100.00;101027.66;5035699;28;20357;-87
2022/01/22 06:26:20;;;;;;;;;;;;;;;3.52;100.00;101039.63;5020803;28;19913;-91
2022/01/22 06:28:58;;;;;;;;;;;;;;;3.53;100.00;101033.56;5037394;28;19978;-89
2022/01/22 06:31:26;;;;;;;;;;;;;;;3.53;100.00;101036.16;5017391;28;19919;-88
2022/01/22 06:33:59;;;;;;;;;;;;;;;3.52;100.00;101042.19;5033610;28;20002;-90
2022/01/22 06:36:27;;;;;;;;;;;;;;;3.53;100.00;101034.41;5034556;28;19971;-89
2022/01/22 06:38:58;;;;;;;;;;;;;;;3.53;100.00;101034.41;5017242;28;20418;-92
2022/01/22 06:41:45;;;;;;;;;;;;;;;3.53;100.00;101036.16;5032235;28;19920;-89
2022/01/22 06:44:38;;;;;;;;;;;;;;;3.57;100.00;101035.19;5035596;28;19956;-91
2022/01/22 06:47:05;;;;;;;;;;;;;;;3.57;100.00;101040.38;5034635;28;20392;-91
2022/01/22 06:49:32;;;;;;;;;;;;;;;3.58;100.00;101048.09;5017068;28;19924;-90
2022/01/22 06:52:07;;;;;;;;;;;;;;;3.59;100.00;101043.75;5035529;28;19920;-91
2022/01/22 06:54:35;;;;;;;;;;;;;;;3.62;100.00;101047.13;5018861;28;19909;-90
2022/01/22 06:57:03;;;;;;;;;;;;;;;3.63;100.00;101051.44;5056563;28;19919;-89
2022/01/22 06:59:29;;;;;;;;;;;;;;;3.64;100.00;101062.66;5023491;28;19916;-89
2022/01/22 07:01:54;;;;;;;;;;;;;;;3.64;100.00;101058.31;5021940;28;19913;-90
2022/01/22 07:04:20;;;;;;;;;;;;;;;3.63;100.00;101067.00;5018138;28;19975;-87
2022/01/22 07:06:46;;;;;;;;;;;;;;;3.64;100.00;101063.50;5042275;28;19963;-92
2022/01/22 07:09:11;;;;;;;;;;;;;;;3.67;100.00;101065.19;5029656;28;19913;-89
2022/01/22 07:11:37;;;;;;;;;;;;;;;3.68;100.00;101066.03;5021086;28;20397;-88
2022/01/22 07:14:03;;;;;;;;;;;;;;;3.67;100.00;101069.47;5034393;28;19994;-87
2022/01/22 07:16:34;;;;;;;;;;;;;;;3.67;100.00;101067.75;5034383;28;19916;-88
2022/01/22 07:19:01;;;;;;;;;;;;;;;3.67;100.00;101070.38;5017486;28;19909;-89
2022/01/22 07:21:29;;;;;;;;;;;;;;;3.69;100.00;101083.28;5019634;28;19913;-88
2022/01/22 07:24:22;;;;;;;;;;;;;;;3.70;100.00;101088.41;5034555;28;19913;-89
2022/01/22 07:26:40;;;;;;;;;;;;;;;3.69;100.00;101086.72;5037988;28;19913;-88
2022/01/22 07:29:05;;;;;;;;;;;;;;;3.70;100.00;101082.38;5015068;28;19928;-89
2022/01/22 07:31:30;;;;;;;;;;;;;;;3.70;100.00;101091.00;5040320;28;19920;-88
2022/01/22 07:33:58;;;;;;;;;;;;;;;3.72;100.00;101102.22;5036111;28;19909;-90
2022/01/22 07:36:26;;;;;;;;;;;;;;;3.83;100.00;101104.53;5030162;28;19920;-88
2022/01/22 07:38:52;;;;;;;;;;;;;;;3.84;100.00;101111.41;5038299;28;19924;-89
2022/01/22 07:41:17;;;;;;;;;;;;;;;3.85;100.00;101108.75;5020913;28;19913;-92
2022/01/22 07:43:48;;;;;;;;;;;;;;;3.83;100.00;101109.72;5018012;28;19913;-89
2022/01/22 07:46:13;;;;;;;;;;;;;;;3.81;100.00;101107.13;5017346;28;20261;-88
2022/01/22 07:48:48;;;;;;;;;;;;;;;3.82;100.00;101108.00;5038778;28;19912;-90
2022/01/22 07:51:32;;;;;;;;;;;;;;;3.83;100.00;101101.94;5008262;28;19925;-89
2022/01/22 07:53:58;;;;;;;;;;;;;;;3.83;100.00;101105.38;5026975;28;19921;-89
2022/01/22 07:56:23;;;;;;;;;;;;;;;3.85;100.00;101107.91;5018519;28;19919;-88
2022/01/22 07:59:02;;;;;;;;;;;;;;;3.86;100.00;101102.72;5033999;28;19941;-91
2022/01/22 08:01:27;;;;;;;;;;;;;;;3.88;100.00;101094.88;5016457;28;19956;-89
2022/01/22 08:03:53;;;;;;;;;;;;;;;3.88;100.00;101111.28;5010600;28;19909;-90
2022/01/22 08:06:24;;;;;;;;;;;;;;;3.90;100.00;101111.25;5016867;28;19925;-89
2022/01/22 08:12:18;;;;;;;;;;;;;;;3.94;100.00;101118.06;5002771;28;19921;-92
2022/01/22 08:15:13;;;;;;;;;;;;;;;3.97;100.00;101125.78;5040002;28;19963;-90
2022/01/22 08:17:37;;;;;;;;;;;;;;;3.98;100.00;101127.47;5042093;28;19913;-89
2022/01/22 08:20:14;;;;;;;;;;;;;;;4.03;100.00;101128.19;5038256;28;19924;-90
2022/01/22 08:22:41;;;;;;;;;;;;;;;4.05;100.00;101133.38;5033809;28;20365;-88
2022/01/22 08:25:10;;;;;;;;;;;;;;;4.08;100.00;101136.72;5031165;28;19929;-90
2022/01/22 08:30:27;;;;;;;;;;;;;;;4.12;100.00;101151.31;5047100;28;19924;-91
2022/01/22 08:38:11;;;;;;;;;;;;;;;4.19;99.88;101156.34;5043759;28;19955;-89
2022/01/22 08:40:36;;;;;;;;;;;;;;;4.19;99.57;101164.13;5040349;28;20346;-89
2022/01/22 08:43:03;;;;;;;;;;;;;;;4.21;99.50;101159.75;5021271;28;19909;-90
2022/01/22 08:45:31;;;;;;;;;;;;;;;4.22;99.29;101162.31;5027707;28;19937;-88
2022/01/22 08:47:57;;;;;;;;;;;;;;;4.24;98.93;101151.91;5030978;28;19921;-89
2022/01/22 08:50:27;;;;;;;;;;;;;;;4.23;98.50;101166.63;5027627;28;19939;-92
2022/01/22 08:52:53;;;;;;;;;;;;;;;4.25;98.56;101172.59;5019711;28;19917;-91
2022/01/22 08:55:18;;;;;;;;;;;;;;;4.26;98.45;101174.31;5037947;28;19943;-90
2022/01/22 08:57:51;;;;;;;;;;;;;;;4.28;98.18;101169.94;5038856;28;20341;-88
2022/01/22 09:00:26;;;;;;;;;;;;;;;4.28;97.60;101180.31;5005322;28;19917;-89
2022/01/22 09:03:10;;;;;;;;;;;;;;;;;;;;;
2022/01/22 09:05:39;;;;;;;;;;;;;;;4.31;97.60;101187.19;5031476;28;20325;-90
2022/01/22 09:08:15;;;;;;;;;;;;;;;4.32;97.63;101188.88;5027212;28;19988;-91
2022/01/22 09:10:52;;;;;;;;;;;;;;;4.37;97.40;101197.38;5018145;28;19913;-92
2022/01/22 09:19:16;;;;;;;;;;;;;;;4.38;97.21;101217.28;4981665;28;19914;-90
2022/01/22 09:22:05;;;;;;;;;;;;;;;4.41;96.82;101214.59;4983365;28;19910;-89
2022/01/22 09:24:54;;;;;;;;;;;;;;;4.47;97.05;101208.38;4988530;28;19910;-89
2022/01/22 09:33:55;;;;;;;;;;;;;;;4.53;96.06;101224.66;4915040;29;20018;-89
2022/01/22 09:36:32;;;;;;;;;;;;;;;4.52;96.05;101230.72;4932045;29;19967;-88
2022/01/22 09:38:57;;;;;;;;;;;;;;;4.53;96.23;101222.06;4916643;29;19919;-89
2022/01/22 09:41:46;;;;;;;;;;;;;;;4.55;95.48;101214.22;4926207;29;19922;-87
2022/01/22 09:44:18;;;;;;;;;;;;;;;4.54;95.86;101225.50;4939038;29;19915;-89
2022/01/22 09:46:49;;;;;;;;;;;;;;;4.60;95.61;101227.97;4933360;29;19914;-86
2022/01/22 09:49:23;;;;;;;;;;;;;;;4.59;95.13;101227.09;4932700;29;19915;-89
2022/01/22 09:51:49;;;;;;;;;;;;;;;4.66;95.66;101230.38;4940942;29;19914;-89
2022/01/22 09:54:17;;;;;;;;;;;;;;;4.66;95.46;101237.31;4924161;29;19921;-91
2022/01/22 09:56:44;;;;;;;;;;;;;;;4.65;95.76;101233.88;4960620;28;19924;-89
2022/01/22 09:59:12;;;;;;;;;;;;;;;4.71;95.60;101238.03;4968977;28;19918;-88
2022/01/22 10:01:41;;;;;;;;;;;;;;;4.73;95.08;101239.69;4961905;28;19920;-89
2022/01/22 10:04:09;;;;;;;;;;;;;;;4.79;95.07;101243.91;4960322;28;20449;-89
2022/01/22 10:06:49;;;;;;;;;;;;;;;4.79;94.67;101244.75;4977218;28;20021;-91
2022/01/22 10:09:33;;;;;;;;;;;;;;;4.77;94.16;101240.47;4977391;28;19924;-88
2022/01/22 10:12:19;;;;;;;;;;;;;;;4.77;94.36;101249.13;5036975;28;19913;-89
2022/01/22 10:15:04;;;;;;;;;;;;;;;4.84;94.06;101252.41;5022915;28;19949;-90
2022/01/22 10:17:47;;;;;;;;;;;;;;;4.87;93.90;101238.47;5033851;28;20242;-89
2022/01/22 10:20:22;;;;;;;;;;;;;;;4.90;93.87;101241.84;5034369;28;20049;-88
2022/01/22 10:22:48;;;;;;;;;;;;;;;4.89;92.59;101234.94;5019885;28;19920;-89
2022/01/22 10:25:26;;;;;;;;;;;;;;;4.97;93.22;101240.78;5027435;28;19935;-88
2022/01/22 10:27:55;;;;;;;;;;;;;;;5.02;92.45;101245.84;5030775;28;19974;-88
2022/01/22 10:30:21;;;;;;;;;;;;;;;5.03;92.12;101243.19;5035858;28;19909;-88
2022/01/22 10:33:01;;;;;;;;;;;;;;;;;;;;;
2022/01/22 10:35:18;;;;;;;;;;;;;;;5.12;91.32;101247.28;5034906;28;20051;-85
2022/01/22 10:37:44;;;;;;;;;;;;;;;5.05;90.15;101256.16;5033908;28;19913;-87
2022/01/22 10:40:27;;;;;;;;;;;;;;;5.09;91.67;101240.41;5019365;28;20058;-86
2022/01/22 10:43:09;;;;;;;;;;;;;;;5.15;91.38;101254.13;5030647;28;19905;-86
2022/01/22 10:45:59;;;;;;;;;;;;;;;5.11;90.95;101255.97;5038627;28;19928;-87
2022/01/22 10:48:25;;;;;;;;;;;;;;;5.18;91.25;101260.09;5035019;28;19999;-87
2022/01/22 10:51:00;;;;;;;;;;;;;;;5.27;90.66;101251.19;5014551;28;20019;-86
2022/01/22 10:53:35;;;;;;;;;;;;;;;5.24;89.63;101249.53;5028728;28;19943;-87
2022/01/22 10:56:02;;;;;;;;;;;;;;;5.24;89.89;101246.06;5020601;28;19925;-85
2022/01/22 10:58:28;;;;;;;;;;;;;;;5.26;90.01;101259.88;5013740;28;19913;-86
2022/01/22 11:01:07;;;;;;;;;;;;;;;5.32;89.33;101255.34;5032513;28;19921;-88
2022/01/22 11:03:32;;;;;;;;;;;;;;;5.37;88.54;101256.94;5035129;28;19912;-88
2022/01/22 11:05:59;;;;;;;;;;;;;;;5.43;88.52;101257.63;5015506;28;19913;-91
2022/01/22 11:08:29;;;;;;;;;;;;;;;5.44;89.34;101253.28;5032327;28;19917;-88
2022/01/22 11:10:55;;;;;;;;;;;;;;;5.41;87.23;101255.97;5014475;28;19913;-88
2022/01/22 11:13:23;;;;;;;;;;;;;;;5.41;87.65;101258.56;5014547;28;19995;-88
2022/01/22 11:15:49;;;;;;;;;;;;;;;5.40;87.38;101259.47;5014916;28;20312;-88
2022/01/22 11:18:15;;;;;;;;;;;;;;;5.42;86.79;101265.50;5035603;28;20004;-88
2022/01/22 11:20:42;;;;;;;;;;;;;;;5.43;87.47;101260.22;5016586;28;20035;-88
2022/01/22 11:23:08;;;;;;;;;;;;;;;5.54;86.90;101259.91;5015128;28;19928;-87
2022/01/22 11:25:33;;;;;;;;;;;;;;;5.55;86.15;101272.84;5020229;28;19917;-88
2022/01/22 11:27:59;;;;;;;;;;;;;;;5.59;86.18;101276.22;5014800;28;19984;-89
2022/01/22 11:30:25;;;;;;;;;;;;;;;5.52;84.96;101269.50;5034036;28;19905;-89
2022/01/22 11:32:57;;;;;;;;;;;;;;;5.48;85.62;101265.28;5032736;28;20378;-89
2022/01/22 11:35:28;;;;;;;;;;;;;;;5.43;86.05;101265.44;5014876;28;19917;-88
2022/01/22 11:38:05;;;;;;;;;;;;;;;5.48;86.17;101265.28;5014639;28;19913;-89
2022/01/22 11:40:33;;;;;;;;;;;;;;;5.52;85.17;101272.94;5015681;28;20320;-88
2022/01/22 11:43:02;;;;;;;;;;;;;;;5.58;85.24;101267.56;5016712;28;19916;-87
2022/01/22 11:45:29;;;;;;;;;;;;;;;5.66;84.99;101271.69;5033984;28;19905;-88
2022/01/22 11:48:13;;;;;;;;;;;;;;;5.61;84.15;101264.03;5033896;28;19955;-89
2022/01/22 11:50:40;;;;;;;;;;;;;;;5.66;84.58;101263.88;5032986;28;19924;-88
2022/01/22 11:53:29;;;;;;;;;;;;;;;5.65;85.03;101267.38;5018382;28;19932;-88
2022/01/22 11:56:10;;;;;;;;;;;;;;;5.72;85.21;101264.56;5019508;28;19924;-88
2022/01/22 11:58:54;;;;;;;;;;;;;;;5.83;85.04;101266.81;5038903;28;19921;-86
2022/01/22 12:01:41;;;;;;;;;;;;;;;5.80;84.92;101270.38;5037049;28;19940;-89
2022/01/22 12:04:10;;;;;;;;;;;;;;;5.80;84.58;101267.75;5035440;28;19921;-87
2022/01/22 12:06:36;;;;;;;;;;;;;;;5.73;83.67;101266.25;5037713;28;19996;-88
2022/01/22 12:09:10;;;;;;;;;;;;;;;5.71;83.54;101272.38;5019204;28;19948;-88
2022/01/22 12:14:54;;;;;;;;;;;;;;;5.58;83.76;101266.72;5023955;28;19924;-88
2022/01/22 12:17:33;;;;;;;;;;;;;;;5.55;83.79;101267.66;4990579;23;19921;-66
2022/01/22 12:22:39;;;;;;;;;;;;;;;5.70;84.19;101262.88;4990377;28;19913;-66
2022/01/22 12:25:07;;;;;;;;;;;;;;;5.73;83.96;101263.63;4987693;28;19929;-64
2022/01/22 12:27:47;;;;;;;;;;;;;;;5.77;83.86;101256.59;5006190;28;19917;-66
2022/01/22 12:30:14;;;;;;;;;;;;;;;5.78;83.48;101269.56;4969338;28;19922;-65
2022/01/22 12:32:43;;;;;;;;;;;;;;;5.75;82.76;101274.03;4984056;28;19933;-67
2022/01/22 12:35:09;;;;;;;;;;;;;;;5.72;82.99;101272.34;4985639;28;20449;-66
2022/01/22 12:37:40;;;;;;;;;;;;;;;5.73;83.35;101276.66;4987271;28;20796;-66
2022/01/22 12:40:06;;;;;;;;;;;;;;;5.72;83.42;101272.34;4985599;28;19928;-65
2022/01/22 12:42:53;;;;;;;;;;;;;;;5.74;83.75;101267.94;4983382;28;19918;-64
2022/01/22 12:45:20;;;;;;;;;;;;;;;5.72;83.58;101266.31;4984768;28;19914;-66
2022/01/22 12:47:47;;;;;;;;;;;;;;;5.69;83.93;101269.00;4986080;28;20458;-67
2022/01/22 12:50:12;;;;;;;;;;;;;;;5.66;84.08;101256.06;4989486;28;19924;-65
2022/01/22 12:52:40;;;;;;;;;;;;;;;5.64;84.03;101268.28;4987066;28;19917;-65
2022/01/22 12:55:26;;;;;;;;;;;;;;;5.55;84.25;101267.66;4986256;28;19960;-66
2022/01/22 12:57:52;;;;;;;;;;;;;;;5.62;85.13;101263.13;4985800;28;19913;-65
2022/01/22 13:00:20;;;;;;;;;;;;;;;5.70;85.04;101262.88;4986111;28;19917;-65
2022/01/22 13:02:57;;;;;;;;;;;;;;;5.74;85.53;101261.88;4985045;28;19997;-67
2022/01/22 13:05:25;;;;;;;;;;;;;;;5.74;85.68;101264.50;4983445;28;20454;-65
2022/01/22 13:07:56;;;;;;;;;;;;;;;5.75;85.90;101268.81;4985952;28;20474;-66
2022/01/22 13:10:33;;;;;;;;;;;;;;;5.83;85.01;101266.81;4984553;28;20028;-65
2022/01/22 13:12:59;;;;;;;;;;;;;;;5.82;86.00;101271.19;4984267;28;19917;-65
2022/01/22 13:15:27;;;;;;;;;;;;;;;5.81;86.00;101264.25;4986694;28;19927;-65
2022/01/22 13:17:54;;;;;;;;;;;;;;;5.86;85.99;101266.72;4985418;28;19987;-64
2022/01/22 13:20:21;;;;;;;;;;;;;;;5.91;86.65;101272.63;4985270;28;19925;-65
2022/01/22 13:22:46;;;;;;;;;;;;;;;5.86;85.91;101269.34;4984063;28;19914;-64
2022/01/22 13:25:13;;;;;;;;;;;;;;;5.79;86.64;101270.41;4985218;28;19973;-65
2022/01/22 13:27:38;;;;;;;;;;;;;;;5.69;86.68;101272.44;4986355;28;19929;-64
2022/01/22 13:30:05;;;;;;;;;;;;;;;5.66;87.08;101269.94;4984734;28;19921;-66
2022/01/22 13:40:36;;;;;;;;;;;;;;;5.68;87.81;101262.94;4986161;28;19924;-64
2022/01/22 13:48:27;;;;;;;;;;;;;;;5.81;87.05;101260.81;4961753;28;19944;-64
2022/01/22 13:50:53;;;;;;;;;;;;;;;5.77;87.02;101267.84;4985697;28;20036;-65
2022/01/22 13:53:19;;;;;;;;;;;;;;;5.76;87.46;101267.91;4984902;28;19921;-65
2022/01/22 13:55:55;;;;;;;;;;;;;;;5.77;86.90;101270.44;4985244;28;19968;-67
2022/01/22 13:58:20;;;;;;;;;;;;;;;5.73;87.19;101268.00;4984794;28;19921;-65
2022/01/22 14:00:45;;;;;;;;;;;;;;;5.72;86.98;101269.75;4986043;28;19993;-65
2022/01/22 14:03:31;;;;;;;;;;;;;;;5.59;87.40;101276.22;4981927;28;20423;-65
2022/01/22 14:05:57;;;;;;;;;;;;;;;5.56;87.52;101266.78;4984385;28;20291;-64
2022/01/22 14:08:30;;;;;;;;;;;;;;;5.57;87.67;101275.44;4982745;28;19940;-65
2022/01/22 14:11:03;;;;;;;;;;;;;;;5.56;87.52;101276.31;4984595;28;20005;-64
2022/01/22 14:13:28;;;;;;;;;;;;;;;5.66;88.05;101276.88;4981324;28;19976;-64
2022/01/22 14:15:53;;;;;;;;;;;;;;;5.65;87.69;101272.59;4998443;28;19917;-65
2022/01/22 14:18:19;;;;;;;;;;;;;;;5.66;87.38;101280.34;4984137;28;19964;-67
2022/01/22 14:20:50;;;;;;;;;;;;;;;5.64;87.82;101278.72;4983198;28;19922;-65
2022/01/22 14:23:16;;;;;;;;;;;;;;;5.66;87.59;101280.34;4983934;28;19929;-66
2022/01/22 14:25:58;;;;;;;;;;;;;;;5.62;87.30;101286.53;4984600;28;19932;-66
2022/01/22 14:28:36;;;;;;;;;;;;;;;5.59;87.57;101274.47;4983505;28;20646;-65
2022/01/22 14:31:01;;;;;;;;;;;;;;;5.60;87.56;101280.53;4984108;28;19922;-64
2022/01/22 14:33:40;;;;;;;;;;;;;;;5.55;87.31;101285.88;4983105;28;20060;-64
2022/01/22 14:36:05;;;;;;;;;;;;;;;5.56;87.84;101290.19;4984513;28;20011;-65
2022/01/22 14:38:56;;;;;;;;;;;;;;;5.51;88.68;101291.22;4984125;28;20051;-65
2022/01/22 14:44:24;;;;;;;;;;;;;;;5.51;88.65;101289.47;4982625;28;19933;-66
2022/01/22 14:46:52;;;;;;;;;;;;;;;5.54;88.58;101296.34;4983168;28;19926;-66
2022/01/22 14:49:20;;;;;;;;;;;;;;;5.53;88.59;101290.28;4983806;28;19917;-64
2022/01/22 14:51:46;;;;;;;;;;;;;;;5.51;88.77;101286.00;4984058;28;19924;-65
2022/01/22 14:54:11;;;;;;;;;;;;;;;5.53;89.17;101295.47;4983548;28;19921;-64
2022/01/22 14:56:37;;;;;;;;;;;;;;;5.52;88.81;101293.75;4984506;28;19922;-64
2022/01/22 14:59:02;;;;;;;;;;;;;;;5.53;89.10;101292.88;4983395;28;19987;-65
2022/01/22 15:01:28;;;;;;;;;;;;;;;5.47;89.29;101295.66;4984059;28;19918;-64
2022/01/22 15:03:53;;;;;;;;;;;;;;;5.49;89.41;101293.88;4982848;28;20545;-64
2022/01/22 15:06:18;;;;;;;;;;;;;;;5.51;89.95;101294.66;4984595;28;20395;-64